Terminal Aerodrome Forecast
Issued by NWS

Home | Current Version | Previous Version | Text Only | Print | Product List | Glossary On
Versions: 1 2 3 4 5 6 7 8 9 10 11 12 13 14 15 16 17 18 19 20 21 22 23 24 25 26 27 28 29 30 31 32 33 34
408
FTAK31 PANC 240526
TAFAIL
TAF
PAIL 240526Z 2406/2506 14008KT P6SM SCT040 OVC120
     FM240800 12008KT 4SM -RA BKN025 OVC040
     FM241100 14008KT 3SM -RASN BKN015 OVC030
     FM241800 22005KT P6SM VCSH BKN015 OVC080=

USA.gov is the U.S. government's official web portal to all federal, state and local government web resources and services.